createdAt,value
2022-10-20T00:01:06.605Z,83.96
2022-10-20T00:03:38.632Z,83.83
2022-10-20T00:06:22.408Z,83.94
2022-10-20T00:08:56.027Z,83.95
2022-10-20T00:11:28.556Z,84.09
2022-10-20T00:14:01.445Z,83.70
2022-10-20T00:16:36.369Z,83.80
2022-10-20T00:19:07.738Z,84.19
2022-10-20T00:21:39.032Z,84.02
2022-10-20T00:24:10.336Z,84.16
2022-10-20T00:26:41.586Z,83.80
2022-10-20T00:29:13.052Z,84.52
2022-10-20T00:31:44.432Z,84.36
2022-10-20T00:34:15.735Z,84.38
2022-10-20T00:36:50.404Z,84.16
2022-10-20T00:39:22.754Z,84.06
2022-10-20T00:42:28.189Z,84.00
2022-10-20T00:45:00.960Z,84.24
2022-10-20T00:48:06.646Z,83.99
2022-10-20T00:50:42.598Z,84.53
2022-10-20T00:53:14.745Z,84.62
2022-10-20T00:55:48.724Z,84.47
2022-10-20T00:58:20.277Z,84.21
2022-10-20T01:00:56.388Z,84.09
2022-10-20T01:03:34.566Z,84.24
2022-10-20T01:06:06.252Z,84.00
2022-10-20T01:08:37.820Z,84.51
2022-10-20T01:11:18.441Z,84.43
2022-10-20T01:14:14.932Z,84.45
2022-10-20T01:17:07.430Z,84.18
2022-10-20T01:20:07.444Z,84.19
2022-10-20T01:22:41.674Z,84.56
2022-10-20T01:25:51.863Z,84.31
2022-10-20T01:28:33.940Z,84.87
2022-10-20T01:31:14.303Z,85.08
2022-10-20T01:33:59.828Z,84.75
2022-10-20T01:36:50.342Z,84.95
2022-10-20T01:39:34.788Z,84.78
2022-10-20T01:42:12.338Z,84.60
2022-10-20T01:44:46.224Z,84.62
2022-10-20T01:47:19.572Z,85.23
2022-10-20T01:49:52.216Z,85.31
2022-10-20T01:52:24.758Z,84.58
2022-10-20T01:54:56.016Z,84.41
2022-10-20T01:57:55.757Z,84.88
2022-10-20T02:00:27.366Z,84.90
2022-10-20T02:03:07.456Z,84.86
2022-10-20T02:05:52.835Z,85.54
2022-10-20T02:08:36.641Z,85.13
2022-10-20T02:11:15.942Z,84.77
2022-10-20T02:13:49.590Z,85.84
2022-10-20T02:16:29.604Z,85.56
2022-10-20T02:19:01.905Z,85.21
2022-10-20T02:21:33.432Z,85.24
2022-10-20T02:24:08.493Z,86.04
2022-10-20T02:26:40.354Z,85.56
2022-10-20T02:29:15.965Z,85.34
2022-10-20T02:31:47.591Z,85.53
2022-10-20T02:34:18.869Z,86.05
2022-10-20T02:36:50.177Z,86.16
2022-10-20T02:39:21.548Z,85.52
2022-10-20T02:41:52.874Z,85.84
2022-10-20T02:44:24.185Z,85.99
2022-10-20T02:46:55.424Z,86.26
2022-10-20T02:49:27.389Z,86.55
2022-10-20T02:51:58.869Z,85.54
2022-10-20T02:54:30.157Z,86.09
2022-10-20T02:57:01.428Z,85.96
2022-10-20T02:59:33.253Z,86.29
2022-10-20T03:02:04.694Z,86.03
2022-10-20T03:04:36.065Z,86.00
2022-10-20T03:07:07.312Z,85.67
2022-10-20T03:09:38.672Z,85.89
2022-10-20T03:12:10.033Z,86.31
2022-10-20T03:14:42.754Z,86.95
2022-10-20T03:17:14.062Z,86.64
2022-10-20T03:19:45.372Z,86.66
2022-10-20T03:22:16.662Z,86.57
2022-10-20T03:24:47.938Z,86.62
2022-10-20T03:27:19.330Z,85.82
2022-10-20T03:29:50.581Z,86.25
2022-10-20T03:32:21.850Z,85.79
2022-10-20T03:34:53.228Z,85.90
2022-10-20T03:37:24.565Z,86.64
2022-10-20T03:39:55.823Z,86.22
2022-10-20T03:42:27.074Z,86.92
2022-10-20T03:44:58.337Z,86.14
2022-10-20T03:47:29.636Z,86.87
2022-10-20T03:50:00.975Z,86.30
2022-10-20T03:52:32.271Z,85.70
2022-10-20T03:55:03.873Z,87.11
2022-10-20T03:57:35.518Z,86.21
2022-10-20T04:00:07.609Z,86.50
2022-10-20T04:02:45.214Z,86.29
2022-10-20T04:05:19.790Z,86.64
2022-10-20T04:07:51.046Z,86.14
2022-10-20T04:10:22.333Z,86.81
2022-10-20T04:12:57.045Z,86.94
2022-10-20T04:15:29.790Z,87.17
2022-10-20T04:18:01.057Z,87.24
2022-10-20T04:20:32.369Z,86.49
2022-10-20T04:23:03.664Z,87.51
2022-10-20T04:25:34.948Z,86.46
2022-10-20T04:28:06.204Z,87.25
2022-10-20T04:30:39.118Z,87.27
2022-10-20T04:33:11.894Z,86.86
2022-10-20T04:35:43.584Z,87.22
2022-10-20T04:38:14.904Z,87.17
2022-10-20T04:40:54.016Z,86.37
2022-10-20T04:43:25.807Z,87.48
2022-10-20T04:46:07.928Z,86.59
2022-10-20T04:48:43.470Z,86.86
2022-10-20T04:51:15.875Z,86.98
2022-10-20T04:53:47.468Z,87.59
2022-10-20T04:56:20.689Z,87.32
2022-10-20T04:58:54.714Z,87.64
2022-10-20T05:01:29.249Z,86.46
2022-10-20T05:04:00.689Z,87.11
2022-10-20T05:06:33.813Z,87.16
2022-10-20T05:09:07.007Z,88.03
2022-10-20T05:11:38.580Z,87.36
2022-10-20T05:14:09.967Z,87.00
2022-10-20T05:16:41.361Z,87.63
2022-10-20T05:19:12.727Z,86.41
2022-10-20T05:21:44.250Z,87.23
2022-10-20T05:24:20.802Z,87.13
2022-10-20T05:26:54.429Z,87.09
2022-10-20T05:29:25.765Z,87.21
2022-10-20T05:31:57.173Z,87.89
2022-10-20T05:34:28.718Z,86.95
2022-10-20T05:37:00.054Z,87.43
2022-10-20T05:39:31.370Z,87.72
2022-10-20T05:42:02.664Z,87.24
2022-10-20T05:44:33.991Z,87.69
2022-10-20T05:47:05.300Z,87.08
2022-10-20T05:49:36.588Z,87.50
2022-10-20T05:52:08.004Z,87.97
2022-10-20T05:54:39.337Z,88.01
2022-10-20T05:57:10.972Z,88.01
2022-10-20T05:59:42.417Z,87.29
2022-10-20T06:02:14.244Z,87.41
2022-10-20T06:04:45.811Z,88.20
2022-10-20T06:07:17.169Z,87.76
2022-10-20T06:09:48.440Z,87.57
2022-10-20T06:12:20.817Z,87.82
2022-10-20T06:14:52.085Z,87.82
2022-10-20T06:17:23.807Z,88.19
2022-10-20T06:19:55.085Z,88.22
2022-10-20T06:22:26.337Z,87.58
2022-10-20T06:24:57.784Z,87.60
2022-10-20T06:27:29.128Z,87.90
2022-10-20T06:30:00.478Z,87.53
2022-10-20T06:32:32.079Z,88.39
2022-10-20T06:35:03.614Z,88.03
2022-10-20T06:37:35.037Z,87.81
2022-10-20T06:40:07.021Z,87.88
2022-10-20T06:42:38.928Z,88.04
2022-10-20T06:45:12.282Z,88.46
2022-10-20T06:47:46.746Z,88.64
2022-10-20T06:50:18.069Z,88.14
2022-10-20T06:52:49.404Z,87.86
2022-10-20T06:55:20.678Z,88.33
2022-10-20T06:57:52.106Z,88.43
2022-10-20T07:00:23.507Z,88.05
2022-10-20T07:02:54.870Z,88.39
2022-10-20T07:05:26.261Z,88.73
2022-10-20T07:07:57.561Z,88.04
2022-10-20T07:10:28.977Z,88.89
2022-10-20T07:13:00.233Z,88.54
2022-10-20T07:15:31.518Z,88.80
2022-10-20T07:18:02.853Z,87.85
2022-10-20T07:20:34.120Z,87.77
2022-10-20T07:23:05.617Z,88.22
2022-10-20T07:25:37.110Z,88.14
2022-10-20T07:28:08.834Z,88.39
2022-10-20T07:30:41.441Z,88.12
2022-10-20T07:33:12.798Z,88.55
2022-10-20T07:35:44.142Z,88.05
2022-10-20T07:38:15.614Z,88.32
2022-10-20T07:40:47.023Z,88.14
2022-10-20T07:43:18.722Z,87.93
2022-10-20T07:45:49.992Z,87.90
2022-10-20T07:48:21.280Z,88.20
2022-10-20T07:50:52.584Z,88.42
2022-10-20T07:53:23.845Z,88.36
2022-10-20T07:55:55.136Z,88.06
2022-10-20T07:58:26.482Z,88.24
2022-10-20T08:00:57.842Z,88.15
2022-10-20T08:03:29.243Z,87.97
2022-10-20T08:06:00.685Z,88.43
2022-10-20T08:08:33.049Z,88.12
2022-10-20T08:11:05.718Z,87.88
2022-10-20T08:13:39.476Z,88.18
2022-10-20T08:16:17.781Z,88.16
2022-10-20T08:19:03.031Z,88.07
2022-10-20T08:21:34.458Z,87.51
2022-10-20T08:24:06.252Z,88.37
2022-10-20T08:26:37.538Z,88.25
2022-10-20T08:29:09.164Z,87.78
2022-10-20T08:31:40.579Z,88.23
2022-10-20T08:34:11.909Z,87.67
2022-10-20T08:36:43.422Z,87.10
2022-10-20T08:39:14.766Z,87.33
2022-10-20T08:42:06.992Z,86.89
2022-10-20T08:44:44.283Z,86.80
2022-10-20T08:47:35.148Z,87.05
2022-10-20T08:50:10.105Z,86.68
2022-10-20T08:52:42.694Z,86.99
2022-10-20T08:55:25.847Z,86.15
2022-10-20T08:58:04.949Z,86.14
2022-10-20T09:00:37.809Z,86.23
2022-10-20T09:03:21.719Z,85.48
2022-10-20T09:05:58.944Z,85.50
2022-10-20T09:08:32.029Z,85.08
2022-10-20T09:11:07.423Z,84.59
2022-10-20T09:13:38.907Z,84.44
2022-10-20T09:16:33.359Z,84.19
2022-10-20T09:19:18.014Z,83.86
2022-10-20T09:21:56.149Z,83.11
2022-10-20T09:24:30.619Z,82.97
2022-10-20T09:27:24.738Z,82.37
2022-10-20T09:29:56.036Z,82.16
2022-10-20T09:32:56.259Z,81.54
2022-10-20T09:35:32.691Z,81.33
2022-10-20T09:38:09.991Z,80.85
2022-10-20T09:40:57.172Z,81.29
2022-10-20T09:43:28.577Z,81.78
2022-10-20T09:46:06.718Z,81.11
2022-10-20T09:48:47.695Z,80.40
2022-10-20T09:51:23.005Z,79.82
2022-10-20T09:54:03.331Z,79.16
2022-10-20T09:56:37.706Z,79.03
2022-10-20T09:59:32.632Z,78.24
2022-10-20T10:02:23.859Z,77.95
2022-10-20T10:05:14.400Z,78.01
2022-10-20T10:07:57.895Z,77.46
2022-10-20T10:10:31.089Z,77.20
2022-10-20T10:15:43.320Z,76.60
2022-10-20T10:18:22.781Z,76.16
2022-10-20T10:21:00.620Z,76.37
2022-10-20T10:23:36.408Z,76.10
2022-10-20T10:26:34.522Z,75.41
2022-10-20T10:29:27.411Z,75.46
2022-10-20T10:32:01.834Z,75.45
2022-10-20T10:34:50.509Z,75.32
2022-10-20T10:39:58.187Z,74.70
2022-10-20T10:42:48.085Z,74.05
2022-10-20T10:45:51.422Z,73.62
2022-10-20T10:48:50.561Z,73.46
2022-10-20T10:51:32.686Z,73.98
2022-10-20T10:54:27.836Z,73.48
2022-10-20T10:57:22.692Z,73.41
2022-10-20T10:59:55.734Z,73.54
2022-10-20T11:02:56.898Z,73.14
2022-10-20T11:05:52.117Z,73.05
2022-10-20T11:08:34.997Z,72.96
2022-10-20T11:11:24.619Z,73.10
2022-10-20T11:14:06.229Z,72.61
2022-10-20T11:17:05.008Z,72.04
2022-10-20T11:19:51.791Z,71.87
2022-10-20T11:22:36.482Z,71.44
2022-10-20T11:25:22.997Z,71.53
2022-10-20T11:27:56.400Z,71.06
2022-10-20T11:30:30.442Z,70.51
2022-10-20T11:33:14.680Z,70.34
2022-10-20T11:35:54.363Z,70.21
2022-10-20T11:38:44.562Z,69.74
2022-10-20T11:41:22.582Z,70.04
2022-10-20T11:44:26.641Z,69.60
2022-10-20T11:47:03.446Z,69.82
2022-10-20T11:49:34.973Z,69.75
2022-10-20T11:52:28.341Z,69.14
2022-10-20T11:55:02.757Z,69.50
2022-10-20T11:57:45.802Z,69.40
2022-10-20T12:03:10.004Z,68.18
2022-10-20T12:06:15.598Z,68.11
2022-10-20T12:09:11.802Z,68.52
2022-10-20T12:11:57.297Z,68.67
2022-10-20T12:14:31.617Z,68.83
2022-10-20T12:17:29.340Z,68.21
2022-10-20T12:20:22.726Z,68.68
2022-10-20T12:22:58.938Z,68.86
2022-10-20T12:25:30.273Z,68.73
2022-10-20T12:28:20.200Z,68.17
2022-10-20T12:30:58.106Z,68.21
2022-10-20T12:33:49.533Z,67.91
2022-10-20T12:36:27.899Z,67.48
2022-10-20T12:39:18.157Z,67.29
2022-10-20T12:42:01.443Z,67.44
2022-10-20T12:44:44.365Z,67.39
2022-10-20T12:47:25.178Z,66.94
2022-10-20T12:50:01.278Z,66.83
2022-10-20T12:52:37.953Z,66.77
2022-10-20T12:55:25.422Z,67.47
2022-10-20T12:58:18.591Z,66.75
2022-10-20T13:00:49.906Z,66.97
2022-10-20T13:03:44.049Z,66.30
2022-10-20T13:06:39.962Z,66.21
2022-10-20T13:09:19.238Z,66.55
2022-10-20T13:11:57.254Z,66.56
2022-10-20T13:14:40.823Z,66.16
2022-10-20T13:17:18.964Z,66.18
2022-10-20T13:20:01.169Z,65.46
2022-10-20T13:22:38.970Z,65.83
2022-10-20T13:25:19.436Z,65.45
2022-10-20T13:27:50.767Z,65.63
2022-10-20T13:30:22.838Z,65.64
2022-10-20T13:33:38.861Z,64.85
2022-10-20T13:36:40.852Z,65.29
2022-10-20T13:39:18.680Z,64.86
2022-10-20T13:42:12.094Z,64.43
2022-10-20T13:45:14.902Z,64.40
2022-10-20T13:47:56.283Z,64.62
2022-10-20T13:50:31.988Z,64.57
2022-10-20T13:53:14.895Z,64.59
2022-10-20T13:56:01.774Z,64.04
2022-10-20T13:58:34.019Z,64.24
2022-10-20T14:01:19.163Z,63.59
2022-10-20T14:03:51.429Z,63.72
2022-10-20T14:06:34.284Z,63.43
2022-10-20T14:09:25.571Z,63.17
2022-10-20T14:12:04.462Z,63.24
2022-10-20T14:14:35.848Z,63.28
2022-10-20T14:17:08.324Z,63.58
2022-10-20T14:19:41.316Z,63.49
2022-10-20T14:22:23.308Z,63.48
2022-10-20T14:24:56.793Z,63.50
2022-10-20T14:27:31.110Z,63.45
2022-10-20T14:30:06.581Z,63.82
2022-10-20T14:32:40.354Z,63.67
2022-10-20T14:35:18.412Z,63.61
2022-10-20T14:37:58.226Z,63.79
2022-10-20T14:40:35.510Z,64.00
2022-10-20T14:43:14.648Z,63.89
2022-10-20T14:45:54.296Z,63.88
2022-10-20T14:48:41.265Z,64.27
2022-10-20T14:51:29.820Z,64.35
2022-10-20T14:54:19.400Z,64.11
2022-10-20T14:57:24.731Z,64.60
2022-10-20T15:00:03.614Z,64.93
2022-10-20T15:02:41.911Z,65.08
2022-10-20T15:05:43.465Z,65.04
2022-10-20T15:08:14.706Z,65.47
2022-10-20T15:10:46.511Z,65.55
2022-10-20T15:13:31.974Z,65.45
2022-10-20T15:16:04.529Z,65.44
2022-10-20T15:18:39.434Z,65.68
2022-10-20T15:21:11.858Z,65.39
2022-10-20T15:23:43.127Z,65.63
2022-10-20T15:26:14.904Z,65.82
2022-10-20T15:28:49.012Z,66.07
2022-10-20T15:31:30.747Z,66.19
2022-10-20T15:34:02.193Z,66.24
2022-10-20T15:36:34.593Z,66.41
2022-10-20T15:39:05.939Z,66.58
2022-10-20T15:41:37.784Z,66.83
2022-10-20T15:44:23.771Z,66.89
2022-10-20T15:46:55.144Z,67.08
2022-10-20T15:49:26.423Z,67.21
2022-10-20T15:51:57.921Z,67.23
2022-10-20T15:54:29.190Z,67.45
2022-10-20T15:57:00.513Z,67.62
2022-10-20T15:59:31.839Z,67.69
2022-10-20T16:02:03.162Z,67.79
2022-10-20T16:04:34.433Z,67.95
2022-10-20T16:07:05.702Z,68.26
2022-10-20T16:09:36.946Z,68.21
2022-10-20T16:12:10.094Z,68.24
2022-10-20T16:14:42.362Z,68.40
2022-10-20T16:17:13.738Z,68.87
2022-10-20T16:19:44.989Z,68.93
2022-10-20T16:22:16.312Z,68.85
2022-10-20T16:24:47.817Z,69.02
2022-10-20T16:27:19.346Z,69.04
2022-10-20T16:29:50.792Z,69.35
2022-10-20T16:32:22.323Z,69.36
2022-10-20T16:34:53.608Z,69.73
2022-10-20T16:37:25.394Z,69.70
2022-10-20T16:39:56.834Z,70.02
2022-10-20T16:42:30.137Z,70.09
2022-10-20T16:45:01.601Z,69.96
2022-10-20T16:47:33.269Z,70.01
2022-10-20T16:50:05.245Z,70.08
2022-10-20T16:52:36.509Z,70.16
2022-10-20T16:55:08.463Z,70.27
2022-10-20T16:57:40.313Z,70.15
2022-10-20T17:00:12.456Z,70.34
2022-10-20T17:02:47.268Z,70.29
2022-10-20T17:05:19.754Z,70.30
2022-10-20T17:07:51.062Z,70.40
2022-10-20T17:10:22.330Z,70.49
2022-10-20T17:12:53.812Z,70.61
2022-10-20T17:15:25.187Z,70.39
2022-10-20T17:17:56.470Z,70.70
2022-10-20T17:20:27.742Z,70.50
2022-10-20T17:22:59.167Z,70.61
2022-10-20T17:25:33.643Z,70.58
2022-10-20T17:28:04.991Z,70.67
2022-10-20T17:30:40.976Z,70.74
2022-10-20T17:33:14.084Z,71.12
2022-10-20T17:35:48.328Z,70.81
2022-10-20T17:38:19.912Z,70.70
2022-10-20T17:40:51.453Z,70.70
2022-10-20T17:43:22.962Z,70.98
2022-10-20T17:45:59.684Z,71.31
2022-10-20T17:48:31.573Z,71.51
2022-10-20T17:51:07.721Z,71.80
2022-10-20T17:53:40.623Z,72.04
2022-10-20T17:56:15.860Z,72.40
2022-10-20T17:58:49.421Z,72.81
2022-10-20T18:01:29.953Z,73.28
2022-10-20T18:04:10.721Z,73.45
2022-10-20T18:06:43.814Z,73.91
2022-10-20T18:09:17.429Z,74.57
2022-10-20T18:11:51.182Z,74.65
2022-10-20T18:14:22.547Z,74.83
2022-10-20T18:16:53.916Z,75.56
2022-10-20T18:19:25.275Z,75.71
2022-10-20T18:21:56.695Z,76.19
2022-10-20T18:24:28.041Z,76.82
2022-10-20T18:26:59.350Z,77.22
2022-10-20T18:29:30.634Z,77.54
2022-10-20T18:32:02.032Z,78.11
2022-10-20T18:34:33.335Z,78.22
2022-10-20T18:37:04.804Z,78.48
2022-10-20T18:39:36.349Z,78.69
2022-10-20T18:42:07.638Z,78.99
2022-10-20T18:44:38.993Z,79.13
2022-10-20T18:47:11.333Z,79.45
2022-10-20T18:49:42.648Z,79.65
2022-10-20T18:52:13.993Z,79.83
2022-10-20T18:54:45.258Z,80.19
2022-10-20T18:57:16.617Z,80.19
2022-10-20T18:59:49.809Z,80.52
2022-10-20T19:02:21.073Z,80.77
2022-10-20T19:04:52.406Z,81.05
2022-10-20T19:07:23.828Z,81.69
2022-10-20T19:09:55.658Z,82.14
2022-10-20T19:12:26.989Z,82.28
2022-10-20T19:14:58.372Z,82.66
2022-10-20T19:17:29.723Z,83.83
2022-10-20T19:20:01.075Z,85.70
2022-10-20T19:22:32.417Z,86.80
2022-10-20T19:25:04.067Z,88.12
2022-10-20T19:27:35.366Z,88.52
2022-10-20T19:30:06.982Z,88.85
2022-10-20T19:32:41.521Z,89.60
2022-10-20T19:35:14.872Z,89.82
2022-10-20T19:37:46.249Z,90.17
2022-10-20T19:40:17.511Z,90.36
2022-10-20T19:42:48.773Z,90.78
2022-10-20T19:45:20.034Z,91.22
2022-10-20T19:47:51.349Z,91.40
2022-10-20T19:50:22.593Z,91.60
2022-10-20T19:52:57.899Z,91.90
2022-10-20T19:55:30.317Z,91.84
2022-10-20T19:58:01.693Z,92.42
2022-10-20T20:00:36.843Z,92.22
2022-10-20T20:03:08.188Z,92.60
2022-10-20T20:05:39.522Z,92.52
2022-10-20T20:08:10.936Z,92.95
2022-10-20T20:10:51.382Z,92.93
2022-10-20T20:13:24.124Z,92.74
2022-10-20T20:15:55.464Z,93.23
2022-10-20T20:18:26.717Z,93.16
2022-10-20T20:21:02.619Z,93.30
2022-10-20T20:23:47.635Z,93.59
2022-10-20T20:26:30.456Z,93.63
2022-10-20T20:29:02.256Z,93.86
2022-10-20T20:31:33.986Z,94.15
2022-10-20T20:34:05.301Z,94.22
2022-10-20T20:36:36.654Z,93.99
2022-10-20T20:39:08.876Z,94.29
2022-10-20T20:41:40.160Z,93.86
2022-10-20T20:44:11.466Z,94.46
2022-10-20T20:46:42.753Z,94.44
2022-10-20T20:49:14.230Z,94.57
2022-10-20T20:51:45.514Z,94.27
2022-10-20T20:54:17.948Z,94.85
2022-10-20T20:56:49.226Z,94.54
2022-10-20T20:59:20.472Z,94.80
2022-10-20T21:01:51.826Z,94.91
2022-10-20T21:04:24.762Z,94.92
2022-10-20T21:07:02.641Z,94.75
2022-10-20T21:09:34.725Z,94.84
2022-10-20T21:12:06.132Z,94.97
2022-10-20T21:14:37.465Z,95.08
2022-10-20T21:17:08.821Z,94.95
2022-10-20T21:19:40.063Z,94.88
2022-10-20T21:22:11.349Z,94.83
2022-10-20T21:24:42.590Z,95.16
2022-10-20T21:27:13.841Z,95.14
2022-10-20T21:29:46.360Z,95.02
2022-10-20T21:32:18.418Z,95.03
2022-10-20T21:34:49.773Z,95.12
2022-10-20T21:37:21.654Z,95.18
2022-10-20T21:39:52.895Z,95.45
2022-10-20T21:42:24.306Z,95.30
2022-10-20T21:44:55.580Z,95.58
2022-10-20T21:47:26.880Z,95.38
2022-10-20T21:49:58.110Z,95.59
2022-10-20T21:52:29.386Z,95.75
2022-10-20T21:55:00.738Z,95.74
2022-10-20T21:57:32.009Z,95.78
2022-10-20T22:00:04.616Z,95.79
2022-10-20T22:02:36.268Z,95.88
2022-10-20T22:05:07.754Z,95.86
2022-10-20T22:07:39.295Z,95.78
2022-10-20T22:10:10.870Z,95.78
2022-10-20T22:12:42.123Z,95.81
2022-10-20T22:15:13.370Z,96.06
2022-10-20T22:17:44.629Z,95.86
2022-10-20T22:20:15.967Z,95.40
2022-10-20T22:22:47.778Z,96.13
2022-10-20T22:25:19.164Z,95.45
2022-10-20T22:27:50.505Z,95.60
2022-10-20T22:30:21.882Z,95.51
2022-10-20T22:32:53.124Z,95.16
2022-10-20T22:35:24.409Z,95.67
2022-10-20T22:37:55.673Z,95.17
2022-10-20T22:40:26.956Z,95.44
2022-10-20T22:42:58.219Z,95.93
2022-10-20T22:45:29.563Z,95.66
2022-10-20T22:48:00.849Z,95.60
2022-10-20T22:50:32.695Z,95.91
2022-10-20T22:53:03.961Z,95.41
2022-10-20T22:55:35.224Z,95.73
2022-10-20T22:58:06.535Z,95.72
2022-10-20T23:00:42.113Z,95.56
2022-10-20T23:03:13.501Z,95.62
2022-10-20T23:05:44.746Z,95.55
2022-10-20T23:08:16.034Z,95.27
2022-10-20T23:10:56.064Z,95.71
2022-10-20T23:13:27.312Z,96.10
2022-10-20T23:15:58.556Z,95.91
2022-10-20T23:18:29.834Z,96.06
2022-10-20T23:21:01.581Z,96.20
2022-10-20T23:23:36.369Z,96.31
2022-10-20T23:26:08.816Z,96.30
2022-10-20T23:28:40.566Z,96.57
2022-10-20T23:31:16.753Z,96.67
2022-10-20T23:33:49.501Z,96.98
2022-10-20T23:36:21.694Z,96.69
2022-10-20T23:38:53.290Z,96.93
2022-10-20T23:41:24.554Z,96.83
2022-10-20T23:43:55.902Z,97.09
2022-10-20T23:46:31.573Z,97.29
2022-10-20T23:49:03.844Z,97.26
2022-10-20T23:51:35.268Z,97.30
2022-10-20T23:54:06.553Z,97.31
2022-10-20T23:56:37.867Z,96.98
2022-10-20T23:59:09.666Z,97.07
